Time;durP1;ratioP1;P1;durP2;ratioP2;P2;SDS_P1;SDS_P2;PMS_P1;PMS_P2;Temp;Humidity;BMP_temperature;BMP_pressure;BME280_temperature;BME280_humidity;BME280_pressure;Samples;Min_cycle;Max_cycle;Signal;HPM_P1;HPM_P2
2023/05/12 00:02:06;;;;;;;1.40;0.90;;;;;;;;;;5113319;28;20812;-79
2023/05/12 00:04:32;;;;;;;1.80;0.90;;;;;;;;;;5107196;28;20370;-79
2023/05/12 00:06:58;;;;;;;1.60;1.00;;;;;;;;;;5103435;28;20463;-79
2023/05/12 00:09:24;;;;;;;1.50;1.10;;;;;;;;;;5094306;28;20475;-79
2023/05/12 00:11:50;;;;;;;1.48;1.05;;;;;;;;;;5083467;28;20377;-79
2023/05/12 00:14:16;;;;;;;1.20;0.90;;;;;;;;;;5096187;28;20732;-79
2023/05/12 00:16:42;;;;;;;1.67;1.00;;;;;;;;;;5091596;28;20382;-79
2023/05/12 00:19:08;;;;;;;1.40;0.90;;;;;;;;;;5092110;28;20378;-79
2023/05/12 00:21:35;;;;;;;1.85;0.90;;;;;;;;;;5091557;28;20806;-79
2023/05/12 00:24:00;;;;;;;1.70;1.20;;;;;;;;;;5091860;28;20377;-79
2023/05/12 00:26:26;;;;;;;2.53;1.05;;;;;;;;;;5101105;28;20396;-79
2023/05/12 00:28:53;;;;;;;1.75;1.20;;;;;;;;;;5102227;28;20402;-79
2023/05/12 00:31:19;;;;;;;2.03;1.13;;;;;;;;;;5091688;28;20389;-79
2023/05/12 00:33:45;;;;;;;1.73;1.20;;;;;;;;;;5091686;28;20382;-79
2023/05/12 00:36:11;;;;;;;1.23;0.90;;;;;;;;;;5094107;28;20378;-79
2023/05/12 00:38:37;;;;;;;1.10;1.00;;;;;;;;;;5098999;28;20377;-79
2023/05/12 00:41:03;;;;;;;1.15;1.00;;;;;;;;;;5111587;28;20491;-79
2023/05/12 00:43:30;;;;;;;1.30;1.20;;;;;;;;;;5107903;28;20977;-80
2023/05/12 00:45:56;;;;;;;1.70;1.27;;;;;;;;;;5101810;28;20376;-79
2023/05/12 00:48:23;;;;;;;1.30;1.20;;;;;;;;;;5109459;28;20380;-80
2023/05/12 00:50:49;;;;;;;2.08;1.17;;;;;;;;;;5115546;28;20471;-79
2023/05/12 00:53:15;;;;;;;1.60;1.10;;;;;;;;;;5112846;28;20457;-79
2023/05/12 00:55:41;;;;;;;1.30;1.20;;;;;;;;;;5111221;28;20410;-79
2023/05/12 00:58:07;;;;;;;1.90;1.20;;;;;;;;;;5105737;28;20386;-79
2023/05/12 01:00:33;;;;;;;2.13;1.20;;;;;;;;;;5098633;28;20378;-80
2023/05/12 01:03:00;;;;;;;1.20;1.10;;;;;;;;;;5115122;28;20850;-80
2023/05/12 01:05:29;;;;;;;2.28;1.45;;;;;;;;;;5095148;28;20472;-79
2023/05/12 01:07:56;;;;;;;1.42;1.20;;;;;;;;;;5114392;28;20387;-78
2023/05/12 01:10:22;;;;;;;1.33;1.17;;;;;;;;;;5109069;28;20461;-80
2023/05/12 01:12:48;;;;;;;1.48;1.20;;;;;;;;;;5111449;28;20425;-79
2023/05/12 01:15:14;;;;;;;1.55;1.05;;;;;;;;;;5113750;28;20377;-79
2023/05/12 01:17:44;;;;;;;1.30;1.00;;;;;;;;;;5114029;28;20472;-80
2023/05/12 01:20:11;;;;;;;1.60;1.00;;;;;;;;;;5113909;28;20377;-79
2023/05/12 01:22:38;;;;;;;2.17;1.27;;;;;;;;;;5113754;28;20430;-79
2023/05/12 01:25:06;;;;;;;1.42;1.10;;;;;;;;;;5099871;28;20369;-80
2023/05/12 01:27:33;;;;;;;1.90;1.10;;;;;;;;;;5113875;28;20890;-79
2023/05/12 01:30:00;;;;;;;1.30;1.08;;;;;;;;;;5113231;28;20376;-79
2023/05/12 01:32:26;;;;;;;1.10;1.00;;;;;;;;;;5113703;28;20878;-79
2023/05/12 01:34:52;;;;;;;1.63;1.17;;;;;;;;;;5113614;28;20711;-80
2023/05/12 01:37:18;;;;;;;2.55;1.10;;;;;;;;;;5113516;28;20407;-80
2023/05/12 01:39:50;;;;;;;2.10;1.48;;;;;;;;;;5112046;28;20384;-80
2023/05/12 01:42:16;;;;;;;1.98;1.58;;;;;;;;;;5095122;28;20400;-80
2023/05/12 01:44:42;;;;;;;3.47;1.70;;;;;;;;;;5105362;27;20394;-78
2023/05/12 01:47:10;;;;;;;2.20;1.30;;;;;;;;;;5113303;28;20372;-79
2023/05/12 01:49:36;;;;;;;3.15;1.40;;;;;;;;;;5113386;28;20425;-79
2023/05/12 01:52:02;;;;;;;1.30;1.20;;;;;;;;;;5113217;28;20862;-79
2023/05/12 01:54:28;;;;;;;1.70;1.60;;;;;;;;;;5110847;27;20485;-79
2023/05/12 01:56:54;;;;;;;1.60;1.50;;;;;;;;;;5115758;27;20410;-80
2023/05/12 01:59:20;;;;;;;1.60;1.50;;;;;;;;;;5112288;28;20395;-79
2023/05/12 02:01:46;;;;;;;2.15;1.65;;;;;;;;;;5112950;28;20404;-79
2023/05/12 02:04:12;;;;;;;1.50;1.40;;;;;;;;;;5111541;27;20367;-79
2023/05/12 02:06:38;;;;;;;2.08;1.55;;;;;;;;;;5112766;28;20384;-78
2023/05/12 02:09:04;;;;;;;1.40;1.30;;;;;;;;;;5110642;28;20468;-79
2023/05/12 02:11:30;;;;;;;1.60;1.50;;;;;;;;;;5109539;28;20950;-79
2023/05/12 02:13:56;;;;;;;2.40;1.70;;;;;;;;;;5112607;28;20376;-79
2023/05/12 02:16:22;;;;;;;2.00;1.90;;;;;;;;;;5099648;28;20788;-79
2023/05/12 02:18:50;;;;;;;2.20;2.10;;;;;;;;;;5099161;28;20386;-80
2023/05/12 02:21:16;;;;;;;2.15;2.05;;;;;;;;;;5102767;28;20392;-78
2023/05/12 02:23:42;;;;;;;2.17;2.08;;;;;;;;;;5106336;28;20374;-79
2023/05/12 02:26:08;;;;;;;1.80;1.70;;;;;;;;;;5097558;27;20423;-79
2023/05/12 02:28:35;;;;;;;1.98;1.85;;;;;;;;;;5106511;27;20437;-78
2023/05/12 02:31:02;;;;;;;2.17;1.95;;;;;;;;;;5109878;28;20430;-79
2023/05/12 02:33:29;;;;;;;1.92;1.83;;;;;;;;;;5112141;28;20372;-79
2023/05/12 02:35:55;;;;;;;2.17;2.08;;;;;;;;;;5113178;28;20451;-79
2023/05/12 02:38:21;;;;;;;2.35;2.15;;;;;;;;;;5111020;28;20395;-79
2023/05/12 02:40:47;;;;;;;2.45;2.35;;;;;;;;;;5105034;28;20381;-79
2023/05/12 02:43:13;;;;;;;2.33;2.17;;;;;;;;;;5113279;28;20384;-78
2023/05/12 02:45:39;;;;;;;2.95;2.67;;;;;;;;;;5113269;28;20387;-78
2023/05/12 02:48:05;;;;;;;2.80;2.60;;;;;;;;;;5113383;28;20368;-78
2023/05/12 02:50:31;;;;;;;3.20;3.00;;;;;;;;;;5113105;28;20384;-78
2023/05/12 02:52:57;;;;;;;3.63;3.33;;;;;;;;;;5113429;28;20473;-78
2023/05/12 02:55:23;;;;;;;3.60;3.30;;;;;;;;;;5112856;28;20392;-78
2023/05/12 02:57:49;;;;;;;3.05;2.85;;;;;;;;;;5092875;28;20453;-78
2023/05/12 03:00:15;;;;;;;3.28;3.08;;;;;;;;;;5093063;28;20385;-78
2023/05/12 03:02:42;;;;;;;3.20;3.00;;;;;;;;;;5092529;28;20398;-78
2023/05/12 03:05:08;;;;;;;3.17;2.97;;;;;;;;;;5092594;28;20374;-78
2023/05/12 03:07:34;;;;;;;4.88;3.05;;;;;;;;;;5106950;28;20373;-78
2023/05/12 03:10:00;;;;;;;3.03;2.80;;;;;;;;;;5092601;28;20432;-78
2023/05/12 03:12:29;;;;;;;3.90;3.60;;;;;;;;;;5092404;28;20488;-78
2023/05/12 03:14:55;;;;;;;3.60;3.40;;;;;;;;;;5105555;28;20459;-78
2023/05/12 03:17:21;;;;;;;3.65;3.45;;;;;;;;;;5092557;28;20786;-78
2023/05/12 03:19:47;;;;;;;3.40;3.10;;;;;;;;;;5092353;28;20409;-78
2023/05/12 03:22:13;;;;;;;3.30;3.00;;;;;;;;;;5092362;28;20406;-78
2023/05/12 03:24:39;;;;;;;3.70;3.25;;;;;;;;;;5092568;28;20432;-78
2023/05/12 03:27:06;;;;;;;2.85;2.70;;;;;;;;;;5092074;28;20779;-78
2023/05/12 03:29:32;;;;;;;3.22;2.92;;;;;;;;;;5092323;28;20370;-78
2023/05/12 03:31:58;;;;;;;3.20;2.90;;;;;;;;;;5092340;28;20867;-78
2023/05/12 03:34:24;;;;;;;3.20;3.00;;;;;;;;;;5092371;28;20469;-78
2023/05/12 03:36:50;;;;;;;2.85;2.65;;;;;;;;;;5106252;28;20385;-78
2023/05/12 03:39:16;;;;;;;5.70;3.45;;;;;;;;;;5092268;28;20382;-78
2023/05/12 03:41:42;;;;;;;4.97;2.90;;;;;;;;;;5092008;28;20909;-78
2023/05/12 03:44:08;;;;;;;2.97;2.78;;;;;;;;;;5102675;28;20392;-78
2023/05/12 03:46:34;;;;;;;3.03;2.85;;;;;;;;;;5110931;28;20376;-78
2023/05/12 03:49:00;;;;;;;3.20;2.92;;;;;;;;;;5107985;28;20377;-78
2023/05/12 03:51:30;;;;;;;3.10;2.80;;;;;;;;;;5111821;28;20411;-78
2023/05/12 03:53:56;;;;;;;2.80;2.60;;;;;;;;;;5111042;28;20562;-78
2023/05/12 03:56:21;;;;;;;3.87;3.30;;;;;;;;;;5110168;28;20461;-78
2023/05/12 03:58:48;;;;;;;3.55;3.33;;;;;;;;;;5097931;28;20392;-78
2023/05/12 04:01:14;;;;;;;4.18;3.50;;;;;;;;;;5091997;28;20429;-78
2023/05/12 04:03:40;;;;;;;5.57;3.40;;;;;;;;;;5091873;28;20382;-78
2023/05/12 04:06:06;;;;;;;3.63;3.40;;;;;;;;;;5107069;28;20371;-78
2023/05/12 04:08:32;;;;;;;3.63;3.42;;;;;;;;;;5122128;28;20399;-78
2023/05/12 04:10:59;;;;;;;3.50;3.30;;;;;;;;;;5095435;28;20381;-78
2023/05/12 04:13:26;;;;;;;3.60;3.40;;;;;;;;;;5091887;28;20374;-79
2023/05/12 04:15:56;;;;;;;3.50;3.30;;;;;;;;;;5091494;28;20420;-78
2023/05/12 04:18:22;;;;;;;4.47;3.50;;;;;;;;;;5091820;28;20378;-78
2023/05/12 04:20:48;;;;;;;3.70;3.40;;;;;;;;;;5091784;28;20969;-78
2023/05/12 04:23:14;;;;;;;3.88;3.58;;;;;;;;;;5091931;28;20424;-78
2023/05/12 04:25:41;;;;;;;4.40;4.10;;;;;;;;;;5088867;28;20739;-78
2023/05/12 04:28:07;;;;;;;4.03;3.72;;;;;;;;;;5098097;28;20370;-78
2023/05/12 04:30:33;;;;;;;4.07;3.75;;;;;;;;;;5095641;28;20445;-78
2023/05/12 04:32:59;;;;;;;3.90;3.60;;;;;;;;;;5111564;27;20378;-78
2023/05/12 04:35:25;;;;;;;4.07;3.80;;;;;;;;;;5107829;28;20370;-78
2023/05/12 04:37:52;;;;;;;4.55;4.25;;;;;;;;;;5091308;28;20384;-78
2023/05/12 04:40:18;;;;;;;5.53;5.20;;;;;;;;;;5095440;28;20743;-78
2023/05/12 04:42:44;;;;;;;6.90;6.50;;;;;;;;;;5095439;28;20406;-79
2023/05/12 04:45:10;;;;;;;10.63;9.82;;;;;;;;;;5094962;28;20384;-78
2023/05/12 04:47:36;;;;;;;11.45;10.65;;;;;;;;;;5099929;28;20382;-78
2023/05/12 04:50:03;;;;;;;11.30;10.50;;;;;;;;;;5099167;28;20829;-79
2023/05/12 04:52:29;;;;;;;11.38;10.57;;;;;;;;;;5094856;28;20485;-78
2023/05/12 04:54:55;;;;;;;12.30;11.30;;;;;;;;;;5076658;28;20937;-78
2023/05/12 04:57:21;;;;;;;11.90;11.00;;;;;;;;;;5111723;28;20392;-78
2023/05/12 04:59:47;;;;;;;12.00;11.10;;;;;;;;;;5104204;28;20433;-78
2023/05/12 05:02:13;;;;;;;11.75;10.95;;;;;;;;;;5105968;28;20399;-78
2023/05/12 05:04:39;;;;;;;12.05;11.25;;;;;;;;;;5102008;28;20375;-78
2023/05/12 05:07:05;;;;;;;12.45;11.52;;;;;;;;;;5109854;28;20376;-79
2023/05/12 05:09:31;;;;;;;12.55;11.65;;;;;;;;;;5114557;28;20875;-79
2023/05/12 05:11:57;;;;;;;11.80;10.90;;;;;;;;;;5094557;28;20389;-79
2023/05/12 05:14:23;;;;;;;12.45;11.48;;;;;;;;;;5101126;28;20417;-79
2023/05/12 05:16:49;;;;;;;13.70;12.73;;;;;;;;;;5095842;28;20433;-80
2023/05/12 05:19:15;;;;;;;12.65;11.75;;;;;;;;;;5114353;28;20384;-79
2023/05/12 05:21:41;;;;;;;14.30;13.25;;;;;;;;;;5121752;27;20764;-79
2023/05/12 05:24:07;;;;;;;15.60;14.50;;;;;;;;;;5107200;28;20799;-79
2023/05/12 05:26:34;;;;;;;20.73;18.83;;;;;;;;;;5114507;28;20415;-79
2023/05/12 05:29:00;;;;;;;18.33;16.67;;;;;;;;;;5114793;28;20380;-80
2023/05/12 05:31:27;;;;;;;16.00;14.73;;;;;;;;;;5101105;28;20384;-80
2023/05/12 05:33:53;;;;;;;14.15;13.15;;;;;;;;;;5113591;28;20768;-81
2023/05/12 05:36:19;;;;;;;14.55;13.45;;;;;;;;;;5099417;28;20375;-80
2023/05/12 05:38:46;;;;;;;13.90;12.50;;;;;;;;;;5114391;28;20902;-80
2023/05/12 05:41:15;;;;;;;12.30;11.40;;;;;;;;;;5117659;27;20438;-82
2023/05/12 05:43:40;;;;;;;12.40;11.50;;;;;;;;;;5113407;28;20422;-82
2023/05/12 05:46:07;;;;;;;13.02;12.10;;;;;;;;;;5094288;28;20907;-82
2023/05/12 05:48:35;;;;;;;13.02;12.02;;;;;;;;;;5116578;27;20380;-81
2023/05/12 05:51:01;;;;;;;13.70;12.40;;;;;;;;;;5114487;28;20393;-80
2023/05/12 05:53:27;;;;;;;12.75;11.68;;;;;;;;;;5114251;28;20961;-79
2023/05/12 05:55:53;;;;;;;10.40;9.60;;;;;;;;;;5114160;28;20731;-81
2023/05/12 05:58:19;;;;;;;9.93;9.23;;;;;;;;;;5105111;28;20378;-79
2023/05/12 06:00:45;;;;;;;9.80;9.15;;;;;;;;;;5097900;28;20890;-79
2023/05/12 06:03:11;;;;;;;11.23;10.43;;;;;;;;;;5099040;28;20376;-79
2023/05/12 06:05:37;;;;;;;11.45;10.50;;;;;;;;;;5113785;28;20464;-79
2023/05/12 06:08:04;;;;;;;10.90;10.13;;;;;;;;;;5113951;28;20449;-79
2023/05/12 06:10:30;;;;;;;10.73;9.98;;;;;;;;;;5112833;27;20374;-79
2023/05/12 06:12:56;;;;;;;10.87;10.17;;;;;;;;;;5109760;28;20382;-79
2023/05/12 06:15:22;;;;;;;11.45;10.65;;;;;;;;;;5104100;28;20743;-79
2023/05/12 06:17:48;;;;;;;11.32;10.52;;;;;;;;;;5109401;28;20393;-79
2023/05/12 06:20:14;;;;;;;10.90;10.10;;;;;;;;;;5104145;28;20384;-80
2023/05/12 06:22:43;;;;;;;9.88;9.07;;;;;;;;;;5106458;28;20746;-80
2023/05/12 06:25:10;;;;;;;8.70;8.00;;;;;;;;;;5116046;27;20380;-80
2023/05/12 06:27:35;;;;;;;7.68;7.07;;;;;;;;;;5106778;28;20364;-79
2023/05/12 06:30:03;;;;;;;7.60;7.10;;;;;;;;;;5094045;28;20720;-79
2023/05/12 06:32:29;;;;;;;7.07;6.47;;;;;;;;;;5113141;28;20383;-79
2023/05/12 06:34:55;;;;;;;7.65;6.95;;;;;;;;;;5112113;28;20493;-79
2023/05/12 06:37:21;;;;;;;7.45;6.95;;;;;;;;;;5113508;28;20385;-78
2023/05/12 06:39:47;;;;;;;7.33;6.83;;;;;;;;;;5113397;28;20831;-78
2023/05/12 06:42:13;;;;;;;6.20;5.80;;;;;;;;;;5113104;28;20407;-79
2023/05/12 06:44:39;;;;;;;6.50;6.10;;;;;;;;;;5113097;28;20368;-79
2023/05/12 06:47:05;;;;;;;6.50;6.00;;;;;;;;;;5094059;28;20491;-79
2023/05/12 06:49:34;;;;;;;5.88;5.47;;;;;;;;;;5087933;28;20886;-79
2023/05/12 06:52:00;;;;;;;6.05;5.65;;;;;;;;;;5102323;28;20754;-80
2023/05/12 06:54:26;;;;;;;5.50;5.20;;;;;;;;;;5113118;28;20480;-80
2023/05/12 06:56:52;;;;;;;6.20;5.80;;;;;;;;;;5100456;28;20477;-79
2023/05/12 06:59:18;;;;;;;6.30;5.80;;;;;;;;;;5106031;28;20747;-79
2023/05/12 07:01:44;;;;;;;7.20;6.70;;;;;;;;;;5094251;28;20404;-79
2023/05/12 07:04:10;;;;;;;5.90;5.50;;;;;;;;;;5108812;28;20375;-79
2023/05/12 07:06:36;;;;;;;5.80;5.40;;;;;;;;;;5112186;28;20459;-79
2023/05/12 07:09:03;;;;;;;5.65;5.28;;;;;;;;;;5099251;28;20378;-79
2023/05/12 07:11:29;;;;;;;5.80;5.45;;;;;;;;;;5112859;28;20379;-79
2023/05/12 07:13:55;;;;;;;5.88;5.47;;;;;;;;;;5112884;28;20372;-79
2023/05/12 07:16:21;;;;;;;6.03;5.63;;;;;;;;;;5107093;28;20809;-79
2023/05/12 07:18:48;;;;;;;5.68;5.28;;;;;;;;;;5103275;28;20377;-79
2023/05/12 07:21:14;;;;;;;5.50;5.10;;;;;;;;;;5112607;28;20408;-79
2023/05/12 07:23:40;;;;;;;6.03;5.55;;;;;;;;;;5112717;28;20461;-78
2023/05/12 07:26:06;;;;;;;5.88;5.47;;;;;;;;;;5108712;28;20395;-79
2023/05/12 07:28:37;;;;;;;7.05;6.55;;;;;;;;;;5112727;28;20368;-78
2023/05/12 07:31:06;;;;;;;5.07;4.68;;;;;;;;;;5112030;28;20387;-79
2023/05/12 07:33:33;;;;;;;3.53;3.33;;;;;;;;;;5112549;28;20870;-78
2023/05/12 07:35:59;;;;;;;3.75;3.55;;;;;;;;;;5112611;28;20419;-78
2023/05/12 07:38:25;;;;;;;3.95;3.65;;;;;;;;;;5112476;28;20900;-78
2023/05/12 07:40:51;;;;;;;3.60;3.30;;;;;;;;;;5117115;27;20393;-79
2023/05/12 07:43:18;;;;;;;1.90;1.80;;;;;;;;;;5114711;27;20376;-79
2023/05/12 07:45:44;;;;;;;2.00;1.90;;;;;;;;;;5094283;28;20385;-79
2023/05/12 07:48:10;;;;;;;3.47;3.17;;;;;;;;;;5103757;28;20785;-79
2023/05/12 07:50:36;;;;;;;6.90;6.32;;;;;;;;;;5114923;28;20411;-79
2023/05/12 07:53:03;;;;;;;2.80;2.70;;;;;;;;;;5112530;28;20373;-79
2023/05/12 07:55:29;;;;;;;2.92;2.72;;;;;;;;;;5112288;28;20408;-79
2023/05/12 07:57:55;;;;;;;2.60;2.40;;;;;;;;;;5107011;28;20378;-79
2023/05/12 08:00:21;;;;;;;2.63;2.42;;;;;;;;;;5096580;28;20802;-79
2023/05/12 08:02:47;;;;;;;2.30;2.20;;;;;;;;;;5097430;28;20400;-79
2023/05/12 08:05:13;;;;;;;2.58;2.40;;;;;;;;;;5116432;27;20368;-79
2023/05/12 08:07:42;;;;;;;3.10;2.65;;;;;;;;;;5111685;28;20395;-79
2023/05/12 08:10:08;;;;;;;2.33;2.13;;;;;;;;;;5106921;28;20434;-79
2023/05/12 08:12:34;;;;;;;1.90;1.80;;;;;;;;;;5098975;28;20469;-79
2023/05/12 08:15:00;;;;;;;2.30;2.10;;;;;;;;;;5115454;28;20533;-79
2023/05/12 08:17:26;;;;;;;3.33;2.00;;;;;;;;;;5115831;28;20845;-79
2023/05/12 08:19:52;;;;;;;1.90;1.80;;;;;;;;;;5104074;28;20416;-81
2023/05/12 08:22:18;;;;;;;2.20;2.00;;;;;;;;;;5116195;28;20391;-81
2023/05/12 08:24:45;;;;;;;2.05;1.95;;;;;;;;;;5116030;28;20724;-81
2023/05/12 08:27:11;;;;;;;2.40;1.88;;;;;;;;;;5116146;28;20379;-81
2023/05/12 08:29:37;;;;;;;3.17;2.30;;;;;;;;;;5115432;28;20392;-80
2023/05/12 08:32:03;;;;;;;2.60;2.00;;;;;;;;;;5105051;28;20383;-80
2023/05/12 08:34:29;;;;;;;1.90;1.70;;;;;;;;;;5102520;27;20931;-80
2023/05/12 08:36:56;;;;;;;1.70;1.47;;;;;;;;;;5108399;28;20368;-80
2023/05/12 08:39:22;;;;;;;1.88;1.77;;;;;;;;;;5109432;28;20434;-80
2023/05/12 08:41:54;;;;;;;1.85;1.75;;;;;;;;;;5103361;28;20404;-80
2023/05/12 08:44:21;;;;;;;3.03;2.40;;;;;;;;;;5108919;28;20381;-80
2023/05/12 08:46:47;;;;;;;3.28;1.77;;;;;;;;;;5115799;28;20376;-80
2023/05/12 08:49:16;;;;;;;1.50;1.40;;;;;;;;;;5115725;28;20404;-80
2023/05/12 08:51:43;;;;;;;2.03;1.50;;;;;;;;;;5115764;28;20435;-80
2023/05/12 08:54:11;;;;;;;2.13;1.73;;;;;;;;;;5115467;28;20449;-80
2023/05/12 08:56:38;;;;;;;2.55;2.15;;;;;;;;;;5115256;28;20372;-80
2023/05/12 08:59:05;;;;;;;2.67;2.47;;;;;;;;;;5099022;28;20382;-80
2023/05/12 09:01:34;;;;;;;1.73;1.35;;;;;;;;;;5095149;28;20433;-80
2023/05/12 09:04:00;;;;;;;1.42;1.33;;;;;;;;;;5095462;28;20413;-80
2023/05/12 09:06:26;;;;;;;1.30;1.20;;;;;;;;;;5115163;28;20412;-80
2023/05/12 09:08:52;;;;;;;1.20;1.10;;;;;;;;;;5114881;28;20372;-80
2023/05/12 09:11:20;;;;;;;2.20;1.70;;;;;;;;;;5114842;28;20385;-80
2023/05/12 09:14:08;;;;;;;2.30;2.10;;;;;;;;;;5115211;28;20376;-80
2023/05/12 09:16:42;;;;;;;1.70;1.60;;;;;;;;;;5096533;28;20486;-80
2023/05/12 09:19:08;;;;;;;1.77;1.67;;;;;;;;;;5115321;28;20393;-80
2023/05/12 09:21:34;;;;;;;2.00;1.80;;;;;;;;;;5115177;28;20392;-81
2023/05/12 09:24:04;;;;;;;2.28;2.03;;;;;;;;;;5114990;28;20368;-80
2023/05/12 09:26:31;;;;;;;2.53;2.28;;;;;;;;;;5114642;28;20722;-81
2023/05/12 09:29:06;;;;;;;2.05;1.80;;;;;;;;;;5114973;28;20380;-80
2023/05/12 09:31:32;;;;;;;2.03;1.83;;;;;;;;;;5114650;28;20373;-81
2023/05/12 09:34:01;;;;;;;2.22;2.08;;;;;;;;;;5115125;28;20379;-81
2023/05/12 09:36:27;;;;;;;1.92;1.67;;;;;;;;;;5102828;28;20381;-81
2023/05/12 09:39:19;;;;;;;1.77;1.67;;;;;;;;;;5114749;28;20392;-79
2023/05/12 09:41:45;;;;;;;2.60;1.70;;;;;;;;;;5107108;28;20781;-81
2023/05/12 09:44:15;;;;;;;1.70;1.60;;;;;;;;;;5103463;28;20376;-80
2023/05/12 09:46:41;;;;;;;2.15;1.88;;;;;;;;;;5114413;28;20372;-81
2023/05/12 09:49:07;;;;;;;2.63;2.03;;;;;;;;;;5109758;28;20380;-80
2023/05/12 09:51:33;;;;;;;2.25;2.05;;;;;;;;;;5122017;27;20397;-81
2023/05/12 09:53:59;;;;;;;1.60;1.50;;;;;;;;;;5118460;27;20394;-80
2023/05/12 09:56:26;;;;;;;1.52;1.42;;;;;;;;;;5102302;28;20923;-81
2023/05/12 09:58:53;;;;;;;2.00;1.17;;;;;;;;;;5098605;27;20424;-81
2023/05/12 10:01:21;;;;;;;1.83;1.50;;;;;;;;;;5114341;28;20407;-80
2023/05/12 10:03:57;;;;;;;2.25;1.60;;;;;;;;;;5106121;28;20383;-79
2023/05/12 10:06:27;;;;;;;1.60;1.50;;;;;;;;;;5103423;28;20451;-80
2023/05/12 10:08:58;;;;;;;1.50;1.40;;;;;;;;;;5114268;28;20387;-81
2023/05/12 10:11:24;;;;;;;1.07;0.90;;;;;;;;;;5110857;28;20481;-80
2023/05/12 10:13:51;;;;;;;1.40;0.80;;;;;;;;;;5114042;28;20406;-80
2023/05/12 10:16:17;;;;;;;1.02;0.90;;;;;;;;;;5112869;28;20425;-80
2023/05/12 10:18:46;;;;;;;1.65;1.30;;;;;;;;;;5103916;28;20381;-80
2023/05/12 10:21:12;;;;;;;2.05;1.10;;;;;;;;;;5112769;28;20384;-81
2023/05/12 10:23:40;;;;;;;1.52;1.17;;;;;;;;;;5113755;28;20380;-81
2023/05/12 10:26:06;;;;;;;1.57;1.47;;;;;;;;;;5118939;27;20483;-81
2023/05/12 10:28:32;;;;;;;1.50;1.40;;;;;;;;;;5093403;28;20375;-81
2023/05/12 10:30:59;;;;;;;1.30;1.20;;;;;;;;;;5093140;28;20424;-81
2023/05/12 10:33:26;;;;;;;2.40;1.70;;;;;;;;;;5109861;28;20368;-81
2023/05/12 10:35:52;;;;;;;1.48;1.20;;;;;;;;;;5113525;28;20372;-81
2023/05/12 10:38:19;;;;;;;1.55;1.10;;;;;;;;;;5112988;28;20368;-81
2023/05/12 10:40:52;;;;;;;1.27;1.10;;;;;;;;;;5102858;28;20866;-81
2023/05/12 10:43:21;;;;;;;1.33;0.90;;;;;;;;;;5113171;28;20404;-80
2023/05/12 10:46:05;;;;;;;1.65;1.05;;;;;;;;;;5113149;28;20372;-81
2023/05/12 10:48:31;;;;;;;0.52;0.50;;;;;;;;;;5110975;28;20372;-81
2023/05/12 10:50:57;;;;;;;0.80;0.80;;;;;;;;;;5109150;28;20481;-82
2023/05/12 10:53:32;;;;;;;0.60;0.60;;;;;;;;;;5108847;28;20377;-81
2023/05/12 10:56:02;;;;;;;0.60;0.60;;;;;;;;;;5112951;28;20391;-82
2023/05/12 10:58:28;;;;;;;0.70;0.50;;;;;;;;;;5101708;28;20731;-80
2023/05/12 11:00:54;;;;;;;1.40;1.10;;;;;;;;;;5092789;28;20402;-80
2023/05/12 11:03:24;;;;;;;1.20;0.98;;;;;;;;;;5092632;28;20444;-80
2023/05/12 11:06:00;;;;;;;1.20;0.43;;;;;;;;;;5088537;28;20396;-80
2023/05/12 11:08:26;;;;;;;1.70;0.88;;;;;;;;;;5092758;28;20427;-80
2023/05/12 11:10:52;;;;;;;1.45;0.80;;;;;;;;;;5092586;28;20386;-80
2023/05/12 11:13:18;;;;;;;0.80;0.80;;;;;;;;;;5082052;28;20929;-79
2023/05/12 11:15:45;;;;;;;0.70;0.70;;;;;;;;;;5098863;28;20423;-81
2023/05/12 11:18:11;;;;;;;1.90;0.70;;;;;;;;;;5092489;28;20499;-81
2023/05/12 11:20:37;;;;;;;0.98;0.70;;;;;;;;;;5092683;28;20385;-81
2023/05/12 11:23:04;;;;;;;0.90;0.60;;;;;;;;;;5092616;28;20413;-80
2023/05/12 11:25:30;;;;;;;1.08;0.75;;;;;;;;;;5092359;28;20461;-80
2023/05/12 11:27:56;;;;;;;1.10;0.60;;;;;;;;;;5092386;28;20445;-81
2023/05/12 11:30:22;;;;;;;1.10;0.60;;;;;;;;;;5092380;28;20382;-81
2023/05/12 11:32:59;;;;;;;2.00;0.60;;;;;;;;;;5091942;28;20847;-80
2023/05/12 11:35:29;;;;;;;0.85;0.63;;;;;;;;;;5092253;28;20856;-80
2023/05/12 11:37:55;;;;;;;0.73;0.70;;;;;;;;;;5102634;28;20520;-80
2023/05/12 11:40:22;;;;;;;0.63;0.63;;;;;;;;;;5092323;28;20460;-80
2023/05/12 11:42:50;;;;;;;1.85;0.80;;;;;;;;;;5093868;28;20410;-80
2023/05/12 11:45:24;;;;;;;0.68;0.68;;;;;;;;;;5091920;28;20378;-80
2023/05/12 11:47:50;;;;;;;0.70;0.60;;;;;;;;;;5092256;28;20859;-80
2023/05/12 11:50:21;;;;;;;0.60;0.60;;;;;;;;;;5092036;28;20458;-80
2023/05/12 11:52:47;;;;;;;0.60;0.50;;;;;;;;;;5092018;28;20382;-80
2023/05/12 11:55:20;;;;;;;0.63;0.50;;;;;;;;;;5117480;28;20452;-81
2023/05/12 11:57:54;;;;;;;1.80;0.60;;;;;;;;;;5106531;28;20374;-80
2023/05/12 12:00:26;;;;;;;1.02;0.50;;;;;;;;;;5124648;28;20419;-80
2023/05/12 12:02:52;;;;;;;0.90;0.40;;;;;;;;;;5106809;28;20488;-80
2023/05/12 12:05:19;;;;;;;1.02;0.60;;;;;;;;;;5093570;28;20478;-81
2023/05/12 12:07:45;;;;;;;0.85;0.50;;;;;;;;;;5091831;28;20411;-80
2023/05/12 12:10:11;;;;;;;1.25;0.50;;;;;;;;;;5112258;28;20373;-80
2023/05/12 12:12:38;;;;;;;1.60;0.50;;;;;;;;;;5111320;28;20445;-83
2023/05/12 12:15:04;;;;;;;0.52;0.50;;;;;;;;;;5103534;28;20859;-80
2023/05/12 12:17:30;;;;;;;2.22;0.47;;;;;;;;;;5106153;28;20388;-80
2023/05/12 12:19:56;;;;;;;2.50;0.88;;;;;;;;;;5111743;28;20380;-81
2023/05/12 12:22:22;;;;;;;0.70;0.40;;;;;;;;;;5111580;28;20817;-81
2023/05/12 12:24:48;;;;;;;0.52;0.50;;;;;;;;;;5116755;28;20392;-81
2023/05/12 12:27:14;;;;;;;0.70;0.50;;;;;;;;;;5111902;28;20365;-81
2023/05/12 12:29:40;;;;;;;0.90;0.60;;;;;;;;;;5111392;28;20368;-81
2023/05/12 12:32:07;;;;;;;0.98;0.63;;;;;;;;;;5108267;28;20372;-82
2023/05/12 12:34:33;;;;;;;0.57;0.50;;;;;;;;;;5111824;28;20383;-80
2023/05/12 12:36:59;;;;;;;2.50;1.50;;;;;;;;;;5111026;28;20415;-83
2023/05/12 12:39:25;;;;;;;2.08;1.70;;;;;;;;;;5111522;28;20464;-79
2023/05/12 12:41:52;;;;;;;2.92;1.08;;;;;;;;;;5111741;28;20430;-79
2023/05/12 12:44:18;;;;;;;1.63;0.77;;;;;;;;;;5112121;28;20377;-79
2023/05/12 12:46:45;;;;;;;0.70;0.65;;;;;;;;;;5115723;28;20429;-78
2023/05/12 12:49:10;;;;;;;0.73;0.60;;;;;;;;;;5115847;28;20433;-78
2023/05/12 12:51:37;;;;;;;1.50;0.70;;;;;;;;;;5115584;28;20392;-79
2023/05/12 12:54:03;;;;;;;2.03;0.80;;;;;;;;;;5115336;28;20380;-79
2023/05/12 12:56:29;;;;;;;0.93;0.65;;;;;;;;;;5115573;28;20373;-81
2023/05/12 12:58:55;;;;;;;1.65;0.68;;;;;;;;;;5100105;28;20926;-79
2023/05/12 13:01:21;;;;;;;0.82;0.60;;;;;;;;;;5095260;28;20452;-81
2023/05/12 13:03:47;;;;;;;1.45;0.60;;;;;;;;;;5095159;28;20472;-81
2023/05/12 13:06:13;;;;;;;0.90;0.70;;;;;;;;;;5100099;28;20400;-79
2023/05/12 13:08:41;;;;;;;0.80;0.80;;;;;;;;;;5103951;28;20418;-81
2023/05/12 13:11:07;;;;;;;1.00;0.70;;;;;;;;;;5094920;28;20366;-81
2023/05/12 13:13:33;;;;;;;1.45;0.82;;;;;;;;;;5095148;28;20379;-80
2023/05/12 13:15:59;;;;;;;1.38;1.10;;;;;;;;;;5094494;28;20370;-81
2023/05/12 13:18:25;;;;;;;1.58;0.90;;;;;;;;;;5095162;28;20736;-81
2023/05/12 13:20:53;;;;;;;2.15;0.88;;;;;;;;;;5095281;28;20763;-80
2023/05/12 13:23:19;;;;;;;1.50;0.80;;;;;;;;;;5094496;28;20467;-80
2023/05/12 13:25:45;;;;;;;0.90;0.80;;;;;;;;;;5106116;28;20374;-81
2023/05/12 13:28:11;;;;;;;0.95;0.90;;;;;;;;;;5105906;28;20372;-80
2023/05/12 13:30:37;;;;;;;0.70;0.70;;;;;;;;;;5108818;28;20382;-80
2023/05/12 13:33:03;;;;;;;1.80;0.90;;;;;;;;;;5110800;27;20376;-79
2023/05/12 13:35:29;;;;;;;2.10;0.98;;;;;;;;;;5108241;28;20382;-80
2023/05/12 13:37:55;;;;;;;3.25;1.10;;;;;;;;;;5109050;28;20955;-80
2023/05/12 13:40:21;;;;;;;2.30;1.05;;;;;;;;;;5114695;28;20427;-80
2023/05/12 13:42:47;;;;;;;1.10;1.00;;;;;;;;;;5114492;28;20428;-80
2023/05/12 13:45:13;;;;;;;2.20;1.10;;;;;;;;;;5114277;28;20417;-80
2023/05/12 13:47:39;;;;;;;1.08;1.00;;;;;;;;;;5114669;28;20878;-80
2023/05/12 13:50:06;;;;;;;1.20;1.10;;;;;;;;;;5099411;27;20374;-81
2023/05/12 13:52:32;;;;;;;1.63;1.30;;;;;;;;;;5102725;28;20391;-79
2023/05/12 13:54:58;;;;;;;1.30;1.20;;;;;;;;;;5114282;28;20750;-80
2023/05/12 13:57:24;;;;;;;1.98;1.10;;;;;;;;;;5111690;28;20387;-79
2023/05/12 13:59:51;;;;;;;1.60;1.50;;;;;;;;;;5094237;28;20436;-79
2023/05/12 14:02:17;;;;;;;2.10;1.27;;;;;;;;;;5105023;27;20404;-79
2023/05/12 14:04:43;;;;;;;2.22;1.67;;;;;;;;;;5094703;28;20375;-80
2023/05/12 14:07:09;;;;;;;1.40;1.30;;;;;;;;;;5109481;27;20403;-80
2023/05/12 14:09:35;;;;;;;2.78;1.17;;;;;;;;;;5099093;28;20380;-80
2023/05/12 14:12:01;;;;;;;1.60;1.50;;;;;;;;;;5113947;28;20398;-79
2023/05/12 14:14:27;;;;;;;2.53;1.30;;;;;;;;;;5110713;28;20905;-79
2023/05/12 14:16:53;;;;;;;1.53;1.10;;;;;;;;;;5114177;28;20414;-80
2023/05/12 14:19:19;;;;;;;1.30;1.13;;;;;;;;;;5116087;28;20387;-79
2023/05/12 14:21:45;;;;;;;1.20;1.10;;;;;;;;;;5113963;28;20894;-80
2023/05/12 14:24:11;;;;;;;1.88;1.15;;;;;;;;;;5109765;28;20389;-80
2023/05/12 14:26:37;;;;;;;1.60;1.15;;;;;;;;;;5107796;28;20457;-80
2023/05/12 14:29:03;;;;;;;1.55;1.45;;;;;;;;;;5104921;28;20460;-79
2023/05/12 14:31:29;;;;;;;1.08;1.00;;;;;;;;;;5113907;28;20804;-80
2023/05/12 14:33:55;;;;;;;3.88;1.42;;;;;;;;;;5108437;27;20874;-79
2023/05/12 14:36:21;;;;;;;1.63;1.52;;;;;;;;;;5109169;28;20377;-79
2023/05/12 14:38:48;;;;;;;1.67;1.20;;;;;;;;;;5113705;28;20376;-79